createdAt,value
2018-08-04T00:00:17.570Z,7.60
2018-08-04T00:02:46.827Z,6.63
2018-08-04T00:05:16.039Z,7.50
2018-08-04T00:07:45.276Z,5.03
2018-08-04T00:10:18.527Z,7.50
2018-08-04T00:12:49.446Z,4.87
2018-08-04T00:15:18.874Z,4.83
2018-08-04T00:17:48.861Z,5.23
2018-08-04T00:20:18.278Z,5.93
2018-08-04T00:22:47.882Z,5.90
2018-08-04T00:25:17.058Z,5.90
2018-08-04T00:27:46.270Z,5.60
2018-08-04T00:30:15.846Z,9.30
2018-08-04T00:32:45.045Z,4.83
2018-08-04T00:35:14.274Z,5.40
2018-08-04T00:37:43.454Z,5.07
2018-08-04T00:40:13.483Z,5.73
2018-08-04T00:42:43.130Z,5.23
2018-08-04T00:45:12.294Z,4.73
2018-08-04T00:47:41.479Z,6.30
2018-08-04T00:50:11.124Z,6.97
2018-08-04T00:52:40.278Z,7.43
2018-08-04T00:55:09.531Z,5.60
2018-08-04T00:57:38.666Z,5.93
2018-08-04T01:00:07.901Z,5.03
2018-08-04T01:02:37.088Z,6.30
2018-08-04T01:05:06.382Z,5.03
2018-08-04T01:07:35.538Z,5.93
2018-08-04T01:10:05.614Z,6.90
2018-08-04T01:12:34.886Z,5.43
2018-08-04T01:15:04.127Z,5.07
2018-08-04T01:17:33.319Z,8.30
2018-08-04T01:20:03.745Z,6.13
2018-08-04T01:22:34.035Z,5.60
2018-08-04T01:25:03.302Z,7.53
2018-08-04T01:27:32.563Z,6.40
2018-08-04T01:30:02.063Z,6.47
2018-08-04T01:32:31.248Z,4.80
2018-08-04T01:35:00.439Z,7.40
2018-08-04T01:37:29.843Z,7.40
2018-08-04T01:39:59.061Z,5.00
2018-08-04T01:42:28.260Z,8.23
2018-08-04T01:44:57.443Z,6.47
2018-08-04T01:47:26.611Z,7.80
2018-08-04T01:49:55.834Z,6.63
2018-08-04T01:52:25.010Z,5.60
2018-08-04T01:54:54.210Z,7.93
2018-08-04T01:57:23.391Z,4.87
2018-08-04T01:59:52.569Z,7.50
2018-08-04T02:02:21.861Z,5.03
2018-08-04T02:04:51.032Z,5.23
2018-08-04T02:07:20.448Z,5.73
2018-08-04T02:09:50.035Z,4.97
2018-08-04T02:12:20.249Z,5.00
2018-08-04T02:14:49.436Z,5.60
2018-08-04T02:17:18.691Z,5.70
2018-08-04T02:19:47.934Z,7.00
2018-08-04T02:22:17.147Z,6.50
2018-08-04T02:24:46.324Z,11.57
2018-08-04T02:27:15.522Z,5.97
2018-08-04T02:29:44.702Z,10.30
2018-08-04T02:32:13.889Z,5.07
2018-08-04T02:34:43.196Z,6.40
2018-08-04T02:37:12.418Z,4.87
2018-08-04T02:39:41.602Z,6.40
2018-08-04T02:42:10.884Z,8.30
2018-08-04T02:44:40.027Z,5.83
2018-08-04T02:47:09.235Z,5.83
2018-08-04T02:49:38.417Z,5.20
2018-08-04T02:52:07.632Z,5.07
2018-08-04T02:54:36.886Z,5.20
2018-08-04T02:57:06.114Z,9.00
2018-08-04T02:59:35.295Z,9.33
2018-08-04T03:02:04.607Z,5.50
2018-08-04T03:04:33.822Z,7.53
2018-08-04T03:07:03.006Z,10.40
2018-08-04T03:09:32.196Z,5.13
2018-08-04T03:12:01.399Z,6.93
2018-08-04T03:14:30.625Z,6.90
2018-08-04T03:16:59.787Z,6.30
2018-08-04T03:19:28.991Z,9.47
2018-08-04T03:21:58.184Z,7.10
2018-08-04T03:24:27.401Z,4.63
2018-08-04T03:26:56.580Z,5.73
2018-08-04T03:29:25.796Z,6.10
2018-08-04T03:31:54.991Z,5.87
2018-08-04T03:34:24.166Z,5.67
2018-08-04T03:36:53.396Z,7.37
2018-08-04T03:39:22.590Z,5.13
2018-08-04T03:41:51.770Z,6.10
2018-08-04T03:44:20.978Z,6.40
2018-08-04T03:46:50.253Z,5.50
2018-08-04T03:49:19.446Z,4.53
2018-08-04T03:51:54.858Z,4.40
2018-08-04T03:54:24.079Z,11.13
2018-08-04T03:56:53.296Z,4.57
2018-08-04T03:59:22.483Z,4.00
2018-08-04T04:01:51.710Z,5.03
2018-08-04T04:04:20.903Z,8.70
2018-08-04T04:06:51.106Z,4.77
2018-08-04T04:09:20.274Z,6.47
2018-08-04T04:11:49.490Z,6.97
2018-08-04T04:14:18.690Z,5.67
2018-08-04T04:16:47.903Z,6.93
2018-08-04T04:19:17.098Z,7.00
2018-08-04T04:21:46.315Z,5.37
2018-08-04T04:24:15.499Z,6.40
2018-08-04T04:26:44.695Z,6.23
2018-08-04T04:29:13.874Z,5.13
2018-08-04T04:31:43.118Z,9.97
2018-08-04T04:34:12.306Z,3.87
2018-08-04T04:36:41.494Z,4.17
2018-08-04T04:39:11.535Z,3.83
2018-08-04T04:41:41.222Z,6.27
2018-08-04T04:44:10.398Z,7.47
2018-08-04T04:46:40.657Z,5.70
2018-08-04T04:49:11.154Z,7.00
2018-08-04T04:51:41.185Z,6.83
2018-08-04T04:54:10.676Z,6.50
2018-08-04T04:56:39.886Z,4.20
2018-08-04T04:59:09.094Z,4.20
2018-08-04T05:01:38.399Z,3.80
2018-08-04T05:04:07.627Z,5.57
2018-08-04T05:06:36.863Z,3.93
2018-08-04T05:09:07.627Z,6.13
2018-08-04T05:11:36.806Z,6.40
2018-08-04T05:14:06.187Z,3.83
2018-08-04T05:16:35.397Z,4.33
2018-08-04T05:19:04.684Z,5.10
2018-08-04T05:21:33.916Z,5.43
2018-08-04T05:24:03.219Z,5.33
2018-08-04T05:26:32.497Z,3.37
2018-08-04T05:29:01.702Z,5.53
2018-08-04T05:31:30.882Z,3.97
2018-08-04T05:34:00.079Z,3.87
2018-08-04T05:36:29.257Z,5.90
2018-08-04T05:38:58.458Z,3.50
2018-08-04T05:41:27.775Z,9.17
2018-08-04T05:43:56.998Z,8.73
2018-08-04T05:46:26.195Z,4.70
2018-08-04T05:48:56.869Z,6.67
2018-08-04T05:51:26.077Z,6.67
2018-08-04T05:53:55.314Z,5.70
2018-08-04T05:56:24.610Z,5.50
2018-08-04T05:58:54.218Z,4.60
2018-08-04T06:01:23.490Z,5.10
2018-08-04T06:03:53.120Z,8.57
2018-08-04T06:06:22.309Z,4.40
2018-08-04T06:08:51.489Z,4.97
2018-08-04T06:11:20.715Z,4.57
2018-08-04T06:13:49.897Z,6.70
2018-08-04T06:16:19.073Z,7.17
2018-08-04T06:18:48.589Z,10.50
2018-08-04T06:21:17.806Z,5.93
2018-08-04T06:23:46.983Z,8.10
2018-08-04T06:26:16.195Z,5.93
2018-08-04T06:28:45.390Z,5.97
2018-08-04T06:31:14.634Z,12.70
2018-08-04T06:33:43.823Z,10.60
2018-08-04T06:36:13.044Z,8.60
2018-08-04T06:38:42.265Z,5.77
2018-08-04T06:41:11.754Z,9.53
2018-08-04T06:43:40.946Z,5.13
2018-08-04T06:46:10.200Z,6.37
2018-08-04T06:48:39.383Z,5.97
2018-08-04T06:51:08.647Z,7.80
2018-08-04T06:53:37.875Z,8.57
2018-08-04T06:56:07.222Z,5.30
2018-08-04T06:58:36.399Z,9.43
2018-08-04T07:01:05.678Z,5.93
2018-08-04T07:03:34.899Z,6.57
2018-08-04T07:06:04.220Z,6.97
2018-08-04T07:08:33.426Z,10.20
2018-08-04T07:11:02.617Z,7.27
2018-08-04T07:13:31.807Z,7.13
2018-08-04T07:16:01.090Z,8.70
2018-08-04T07:18:30.295Z,12.10
2018-08-04T07:20:59.511Z,6.07
2018-08-04T07:23:28.728Z,6.53
2018-08-04T07:25:57.985Z,8.90
2018-08-04T07:28:27.210Z,13.70
2018-08-04T07:30:56.526Z,7.60
2018-08-04T07:33:26.165Z,7.90
2018-08-04T07:35:55.416Z,7.37
2018-08-04T07:38:24.603Z,5.90
2018-08-04T07:40:53.819Z,6.10
2018-08-04T07:43:22.998Z,6.70
2018-08-04T07:45:52.238Z,6.60
2018-08-04T07:48:21.454Z,4.60
2018-08-04T07:50:50.626Z,6.40
2018-08-04T07:53:19.835Z,6.77
2018-08-04T07:55:49.002Z,5.13
2018-08-04T07:58:18.190Z,4.37
2018-08-04T08:00:47.383Z,7.43
2018-08-04T08:03:16.588Z,4.40
2018-08-04T08:05:45.790Z,4.20
2018-08-04T08:08:15.039Z,5.73
2018-08-04T08:10:44.272Z,5.70
2018-08-04T08:13:13.446Z,4.50
2018-08-04T08:15:42.638Z,6.63
2018-08-04T08:18:11.830Z,4.63
2018-08-04T08:20:41.051Z,4.60
2018-08-04T08:23:11.249Z,4.87
2018-08-04T08:25:45.584Z,5.77
2018-08-04T08:28:14.779Z,8.30
2018-08-04T08:30:45.041Z,3.97
2018-08-04T08:33:14.242Z,3.93
2018-08-04T08:35:43.464Z,4.10
2018-08-04T08:38:12.638Z,4.73
2018-08-04T08:40:41.878Z,4.40
2018-08-04T08:43:11.066Z,8.00
2018-08-04T08:45:40.291Z,5.00
2018-08-04T08:48:10.573Z,5.13
2018-08-04T08:50:39.878Z,6.20
2018-08-04T08:53:09.113Z,8.27
2018-08-04T08:55:38.343Z,4.73
2018-08-04T08:58:07.655Z,8.30
2018-08-04T09:00:37.015Z,5.77
2018-08-04T09:03:06.472Z,7.50
2018-08-04T09:05:35.722Z,6.10
2018-08-04T09:08:05.204Z,6.63
2018-08-04T09:10:34.403Z,4.70
2018-08-04T09:13:04.124Z,4.20
2018-08-04T09:15:33.349Z,4.33
2018-08-04T09:18:02.671Z,5.93
2018-08-04T09:20:31.919Z,4.10
2018-08-04T09:23:01.156Z,4.73
2018-08-04T09:25:30.306Z,4.20
2018-08-04T09:27:59.499Z,5.10
2018-08-04T09:30:28.750Z,4.10
2018-08-04T09:32:57.971Z,4.83
2018-08-04T09:35:27.149Z,4.33
2018-08-04T09:37:56.450Z,8.67
2018-08-04T09:40:25.670Z,4.70
2018-08-04T09:42:54.899Z,6.80
2018-08-04T09:45:25.111Z,3.47
2018-08-04T09:47:54.319Z,8.60
2018-08-04T09:50:23.490Z,4.30
2018-08-04T09:52:52.684Z,9.73
2018-08-04T09:55:21.995Z,12.37
2018-08-04T09:57:51.215Z,5.60
2018-08-04T10:00:25.702Z,4.53
2018-08-04T10:02:54.974Z,3.97
2018-08-04T10:05:24.169Z,7.13
2018-08-04T10:07:53.413Z,6.30
2018-08-04T10:10:22.628Z,3.73
2018-08-04T10:12:51.856Z,6.50
2018-08-04T10:15:21.041Z,8.80
2018-08-04T10:17:50.270Z,10.47
2018-08-04T10:20:19.550Z,5.90
2018-08-04T10:22:48.790Z,5.23
2018-08-04T10:25:17.990Z,6.97
2018-08-04T10:27:47.232Z,5.47
2018-08-04T10:30:16.488Z,6.00
2018-08-04T10:32:45.818Z,7.53
2018-08-04T10:35:14.971Z,5.63
2018-08-04T10:37:44.186Z,4.60
2018-08-04T10:40:13.407Z,7.50
2018-08-04T10:42:42.726Z,7.80
2018-08-04T10:45:12.014Z,7.13
2018-08-04T10:47:41.298Z,10.80
2018-08-04T10:50:10.638Z,8.60
2018-08-04T10:52:39.919Z,10.80
2018-08-04T10:55:09.138Z,10.90
2018-08-04T10:57:38.358Z,5.20
2018-08-04T11:00:09.021Z,4.80
2018-08-04T11:02:38.314Z,3.90
2018-08-04T11:05:08.032Z,6.00
2018-08-04T11:07:37.259Z,7.43
2018-08-04T11:10:06.855Z,5.30
2018-08-04T11:12:36.156Z,3.70
2018-08-04T11:15:05.390Z,7.33
2018-08-04T11:17:34.582Z,4.50
2018-08-04T11:20:03.923Z,6.97
2018-08-04T11:22:33.114Z,6.43
2018-08-04T11:25:02.342Z,4.50
2018-08-04T11:27:31.534Z,11.10
2018-08-04T11:30:00.734Z,8.80
2018-08-04T11:32:29.919Z,8.13
2018-08-04T11:34:59.110Z,7.63
2018-08-04T11:37:28.318Z,5.20
2018-08-04T11:39:57.502Z,5.47
2018-08-04T11:42:26.813Z,7.10
2018-08-04T11:44:56.011Z,5.27
2018-08-04T11:47:25.226Z,6.70
2018-08-04T11:49:54.478Z,4.60
2018-08-04T11:52:23.701Z,3.97
2018-08-04T11:54:52.946Z,5.50
2018-08-04T11:57:22.170Z,6.70
2018-08-04T11:59:51.373Z,5.10
2018-08-04T12:02:20.575Z,4.97
2018-08-04T12:04:50.041Z,9.23
2018-08-04T12:07:19.299Z,6.20
2018-08-04T12:09:48.504Z,11.73
2018-08-04T12:12:17.707Z,12.37
2018-08-04T12:14:47.021Z,8.90
2018-08-04T12:17:16.196Z,13.47
2018-08-04T12:19:45.389Z,15.73
2018-08-04T12:22:14.577Z,9.53
2018-08-04T12:24:43.781Z,14.13
2018-08-04T12:27:13.358Z,13.77
2018-08-04T12:29:42.600Z,10.80
2018-08-04T12:32:11.759Z,5.50
2018-08-04T12:34:40.987Z,15.70
2018-08-04T12:37:10.130Z,7.57
2018-08-04T12:39:39.384Z,10.30
2018-08-04T12:42:08.558Z,8.10
2018-08-04T12:44:37.920Z,12.20
2018-08-04T12:47:07.174Z,7.87
2018-08-04T12:49:36.397Z,11.63
2018-08-04T12:52:05.586Z,5.77
2018-08-04T12:54:34.864Z,9.00
2018-08-04T12:57:03.986Z,9.00
2018-08-04T12:59:33.272Z,12.30
2018-08-04T13:02:02.435Z,9.40
2018-08-04T13:04:31.670Z,10.77
2018-08-04T13:07:00.848Z,8.77
2018-08-04T13:09:30.004Z,9.03
2018-08-04T13:11:59.286Z,11.20
2018-08-04T13:14:28.458Z,8.87
2018-08-04T13:16:57.647Z,10.37
2018-08-04T13:19:26.807Z,11.70
2018-08-04T13:21:56.072Z,12.13
2018-08-04T13:24:25.208Z,9.80
2018-08-04T13:26:54.394Z,9.90
2018-08-04T13:29:23.813Z,10.10
2018-08-04T13:31:53.000Z,11.80
2018-08-04T13:34:22.194Z,8.47
2018-08-04T13:36:51.415Z,10.27
2018-08-04T13:39:20.595Z,10.80
2018-08-04T13:41:49.804Z,8.17
2018-08-04T13:44:18.995Z,11.93
2018-08-04T13:46:48.206Z,10.73
2018-08-04T13:49:17.499Z,12.57
2018-08-04T13:51:46.709Z,8.27
2018-08-04T13:54:15.934Z,7.97
2018-08-04T13:56:45.210Z,12.20
2018-08-04T13:59:14.387Z,9.80
2018-08-04T14:01:43.574Z,10.63
2018-08-04T14:04:12.801Z,7.13
2018-08-04T14:06:41.991Z,16.03
2018-08-04T14:09:12.018Z,7.83
2018-08-04T14:11:41.194Z,8.20
2018-08-04T14:14:10.391Z,6.70
2018-08-04T14:16:39.582Z,8.80
2018-08-04T14:19:08.734Z,5.60
2018-08-04T14:21:38.019Z,9.23
2018-08-04T14:24:07.210Z,10.83
2018-08-04T14:26:36.406Z,5.47
2018-08-04T14:29:05.630Z,9.07
2018-08-04T14:31:34.902Z,10.40
2018-08-04T14:34:04.202Z,10.03
2018-08-04T14:36:33.405Z,7.70
2018-08-04T14:39:02.583Z,7.90
2018-08-04T14:41:31.799Z,10.63
2018-08-04T14:44:00.939Z,7.43
2018-08-04T14:46:30.109Z,8.53
2018-08-04T14:48:59.270Z,10.87
2018-08-04T14:51:28.595Z,10.90
2018-08-04T14:53:57.758Z,8.40
2018-08-04T14:56:26.998Z,6.80
2018-08-04T14:58:56.461Z,5.70
2018-08-04T15:01:25.672Z,8.10
2018-08-04T15:03:54.850Z,13.37
2018-08-04T15:06:24.019Z,3.93
2018-08-04T15:08:53.203Z,6.40
2018-08-04T15:11:22.538Z,9.13
2018-08-04T15:13:51.785Z,5.53
2018-08-04T15:16:20.964Z,6.60
2018-08-04T15:18:50.139Z,7.27
2018-08-04T15:21:19.293Z,5.13
2018-08-04T15:23:48.646Z,8.23
2018-08-04T15:26:17.844Z,8.60
2018-08-04T15:28:47.105Z,5.67
2018-08-04T15:31:16.282Z,6.90
2018-08-04T15:33:45.511Z,5.80
2018-08-04T15:36:14.673Z,8.33
2018-08-04T15:38:43.863Z,7.43
2018-08-04T15:41:13.042Z,7.00
2018-08-04T15:43:42.222Z,2.60
2018-08-04T15:46:11.410Z,4.73
2018-08-04T15:48:40.650Z,6.50
2018-08-04T15:51:09.914Z,4.60
2018-08-04T15:53:39.101Z,3.47
2018-08-04T15:56:08.410Z,5.03
2018-08-04T15:58:37.734Z,4.50
2018-08-04T16:01:06.954Z,2.97
2018-08-04T16:03:36.175Z,2.70
2018-08-04T16:06:05.330Z,3.77
2018-08-04T16:08:34.507Z,2.30
2018-08-04T16:11:03.662Z,2.57
2018-08-04T16:13:32.850Z,2.30
2018-08-04T16:16:02.090Z,3.13
2018-08-04T16:18:31.259Z,2.50
2018-08-04T16:21:00.445Z,2.30
2018-08-04T16:23:29.638Z,3.17
2018-08-04T16:25:58.898Z,2.27
2018-08-04T16:28:28.142Z,3.47
2018-08-04T16:30:57.330Z,2.80
2018-08-04T16:33:26.513Z,2.87
2018-08-04T16:35:55.669Z,2.40
2018-08-04T16:38:24.876Z,2.00
2018-08-04T16:40:54.058Z,2.83
2018-08-04T16:43:23.235Z,2.37
2018-08-04T16:45:52.396Z,2.20
2018-08-04T16:48:21.561Z,2.10
2018-08-04T16:50:50.750Z,2.33
2018-08-04T16:53:19.965Z,2.77
2018-08-04T16:55:49.142Z,2.77
2018-08-04T16:58:18.321Z,2.10
2018-08-04T17:00:47.515Z,4.00
2018-08-04T17:03:16.742Z,2.33
2018-08-04T17:05:45.945Z,2.53
2018-08-04T17:08:15.114Z,2.40
2018-08-04T17:10:44.311Z,2.20
2018-08-04T17:13:13.474Z,2.60
2018-08-04T17:15:42.715Z,5.23
2018-08-04T17:18:11.920Z,2.13
2018-08-04T17:20:41.171Z,5.33
2018-08-04T17:23:10.338Z,3.43
2018-08-04T17:25:39.573Z,2.10
2018-08-04T17:28:08.926Z,4.30
2018-08-04T17:30:38.118Z,3.00
2018-08-04T17:33:07.355Z,2.60
2018-08-04T17:35:36.607Z,2.43
2018-08-04T17:38:05.961Z,3.10
2018-08-04T17:40:35.183Z,2.77
2018-08-04T17:43:04.334Z,3.57
2018-08-04T17:45:33.564Z,2.57
2018-08-04T17:48:02.762Z,3.10
2018-08-04T17:50:31.995Z,3.87
2018-08-04T17:53:01.226Z,2.97
2018-08-04T17:55:30.411Z,2.20
2018-08-04T17:57:59.574Z,1.87
2018-08-04T18:00:28.810Z,1.97
2018-08-04T18:02:58.043Z,5.50
2018-08-04T18:05:27.335Z,3.07
2018-08-04T18:07:56.509Z,3.57
2018-08-04T18:10:25.739Z,3.27
2018-08-04T18:12:54.922Z,1.90
2018-08-04T18:15:24.106Z,2.67
2018-08-04T18:17:53.274Z,1.67
2018-08-04T18:20:22.492Z,4.80
2018-08-04T18:22:51.756Z,2.97
2018-08-04T18:25:20.934Z,3.10
2018-08-04T18:27:50.306Z,2.07
2018-08-04T18:30:19.493Z,3.47
2018-08-04T18:32:48.659Z,4.97
2018-08-04T18:35:17.981Z,1.87
2018-08-04T18:37:47.180Z,2.40
2018-08-04T18:40:16.427Z,2.07
2018-08-04T18:42:45.637Z,2.30
2018-08-04T18:45:14.835Z,2.27
2018-08-04T18:47:43.997Z,3.60
2018-08-04T18:50:13.162Z,2.93
2018-08-04T18:52:42.325Z,2.10
2018-08-04T18:55:11.480Z,5.03
2018-08-04T18:57:40.782Z,2.63
2018-08-04T19:00:10.001Z,2.17
2018-08-04T19:02:39.190Z,2.07
2018-08-04T19:05:08.446Z,2.40
2018-08-04T19:07:37.618Z,2.70
2018-08-04T19:10:06.799Z,2.60
2018-08-04T19:12:35.979Z,2.13
2018-08-04T19:15:05.146Z,2.97
2018-08-04T19:17:34.326Z,2.70
2018-08-04T19:20:03.552Z,2.47
2018-08-04T19:22:32.702Z,2.13
2018-08-04T19:25:01.850Z,2.00
2018-08-04T19:27:31.158Z,2.20
2018-08-04T19:30:00.314Z,2.10
2018-08-04T19:32:29.490Z,1.67
2018-08-04T19:34:58.625Z,2.00
2018-08-04T19:37:27.826Z,3.33
2018-08-04T19:39:57.845Z,1.90
2018-08-04T19:42:27.118Z,1.80
2018-08-04T19:44:56.371Z,2.03
2018-08-04T19:47:25.522Z,2.03
2018-08-04T19:49:54.978Z,2.13
2018-08-04T19:52:24.099Z,3.30
2018-08-04T19:54:59.917Z,3.10
2018-08-04T19:57:29.093Z,2.10
2018-08-04T19:59:58.291Z,2.37
2018-08-04T20:02:27.441Z,2.53
2018-08-04T20:04:56.591Z,3.20
2018-08-04T20:07:25.773Z,2.37
2018-08-04T20:09:55.017Z,1.77
2018-08-04T20:12:24.167Z,2.07
2018-08-04T20:14:53.477Z,2.20
2018-08-04T20:17:22.562Z,1.93
2018-08-04T20:19:51.717Z,2.80
2018-08-04T20:22:20.861Z,2.13
2018-08-04T20:24:50.026Z,2.67
2018-08-04T20:27:19.206Z,1.70
2018-08-04T20:29:48.378Z,1.70
2018-08-04T20:32:17.598Z,2.73
2018-08-04T20:34:46.776Z,1.77
2018-08-04T20:37:15.953Z,1.80
2018-08-04T20:39:46.147Z,3.70
2018-08-04T20:42:15.322Z,1.77
2018-08-04T20:44:44.574Z,2.30
2018-08-04T20:47:13.647Z,1.50
2018-08-04T20:49:42.845Z,2.53
2018-08-04T20:52:12.046Z,2.33
2018-08-04T20:54:41.206Z,1.67
2018-08-04T20:57:10.383Z,2.70
2018-08-04T20:59:39.608Z,1.87
2018-08-04T21:02:08.753Z,1.60
2018-08-04T21:04:37.954Z,1.83
2018-08-04T21:07:07.548Z,2.70
2018-08-04T21:09:36.714Z,2.43
2018-08-04T21:12:05.933Z,3.33
2018-08-04T21:14:35.132Z,2.07
2018-08-04T21:17:04.317Z,5.47
2018-08-04T21:19:33.508Z,2.10
2018-08-04T21:22:02.694Z,2.03
2018-08-04T21:24:31.862Z,2.47
2018-08-04T21:27:01.026Z,2.40
2018-08-04T21:29:30.169Z,3.20
2018-08-04T21:31:59.334Z,1.83
2018-08-04T21:34:28.529Z,1.87
2018-08-04T21:36:57.709Z,2.70
2018-08-04T21:39:26.846Z,2.07
2018-08-04T21:41:56.023Z,2.00
2018-08-04T21:44:25.271Z,2.40
2018-08-04T21:46:54.436Z,1.90
2018-08-04T21:49:23.570Z,2.10
2018-08-04T21:51:52.697Z,3.20
2018-08-04T21:54:21.952Z,3.40
2018-08-04T21:56:51.114Z,2.33
2018-08-04T21:59:20.270Z,2.33
2018-08-04T22:01:55.655Z,1.97
2018-08-04T22:04:25.035Z,2.03
2018-08-04T22:08:06.694Z,3.97
2018-08-04T22:10:35.937Z,3.90
2018-08-04T22:13:05.295Z,2.00
2018-08-04T22:15:34.367Z,2.27
2018-08-04T22:18:03.622Z,2.93
2018-08-04T22:20:32.856Z,2.27
2018-08-04T22:23:02.106Z,5.30
2018-08-04T22:25:31.325Z,2.30
2018-08-04T22:28:00.550Z,2.07
2018-08-04T22:30:29.686Z,2.60
2018-08-04T22:32:58.893Z,2.07
2018-08-04T22:35:28.055Z,1.97
2018-08-04T22:37:57.234Z,2.60
2018-08-04T22:40:26.414Z,3.80
2018-08-04T22:42:55.623Z,2.00
2018-08-04T22:46:27.938Z,2.23
2018-08-04T22:48:57.095Z,3.40
2018-08-04T22:51:28.697Z,2.70
2018-08-04T22:53:57.921Z,2.50
2018-08-04T22:56:27.122Z,3.47
2018-08-04T22:58:56.298Z,2.73
2018-08-04T23:01:25.446Z,7.10
2018-08-04T23:03:54.658Z,2.63
2018-08-04T23:06:23.818Z,1.80
2018-08-04T23:08:53.128Z,2.47
2018-08-04T23:11:22.339Z,4.50
2018-08-04T23:13:51.561Z,4.20
2018-08-04T23:16:20.718Z,3.23
2018-08-04T23:18:49.902Z,2.57
2018-08-04T23:21:19.150Z,3.20
2018-08-04T23:23:48.306Z,1.80
2018-08-04T23:26:17.481Z,2.03
2018-08-04T23:28:46.652Z,2.37
2018-08-04T23:31:15.790Z,2.07
2018-08-04T23:33:44.956Z,3.00
2018-08-04T23:36:14.152Z,6.60
2018-08-04T23:38:43.298Z,2.43
2018-08-04T23:41:12.587Z,4.50
2018-08-04T23:43:41.738Z,2.07
2018-08-04T23:46:10.906Z,2.00
2018-08-04T23:48:40.074Z,2.27
2018-08-04T23:51:09.268Z,2.50
2018-08-04T23:53:38.505Z,4.93
2018-08-04T23:56:07.697Z,1.87
2018-08-04T23:58:36.923Z,3.13
